Tasman — ZDKI2 — position and weather

sailwx.info

Track history (hours):
 
Tides and Currents Weather Stations Pressure Air Temp Water Temp Dewpoint Dewpoint Depression Visibility Wind Speed Wind Dir Waves Ship Positions

Tasman

Last reported at 2016-Apr-30 14:32 UTC. Time now 2016-Apr-30 15:04 UTC.
Position N 38°43' W 009°50'.

Length 90 m; draft 4 m.

Type: Ship. MMSI: 23617000.

Date/timePositionNaut miles runAvg speedWind from/ knotsBaromVisibWave heightAir tempDewpointWater temp
2016-Apr-30 14:32N 38°43' W 009°50'7 6.7
2016-Apr-30 13:33N 38°37' W 009°49'6 6.1
2016-Apr-30 12:32N 38°31' W 009°47'8 6.0
2016-Apr-30 11:10N 38°23' W 009°45'14 7.1
2016-Apr-30 09:10N 38°09' W 009°41'5 8.3
2016-Apr-30 08:33N 38°04' W 009°39'9 9.0
2016-Apr-30 07:33N 37°55' W 009°37'23310.1
2016-Apr-29 08:33N 36°00' W 005°23'38212.1
2016-Apr-28 01:05N 37°11' E 002°24'610.7
2016-Apr-28 00:33N 37°12' E 002°31'1111.0
2016-Apr-27 23:33N 37°13' E 002°44'1211.6
2016-Apr-27 22:33N 37°15' E 002°59'1812.2
2016-Apr-27 21:04N 37°18' E 003°21'3112.1
2016-Apr-27 18:32N 37°22' E 003°60'45811.6
2016-Apr-26 03:08N 36°57' E 013°34'610.6
2016-Apr-26 02:33N 36°55' E 013°41'1110.6
2016-Apr-26 01:33N 36°52' E 013°54'1110.7
2016-Apr-26 00:33N 36°49' E 014°06'1110.9
2016-Apr-25 23:33N 36°45' E 014°19'1010.3
2016-Apr-25 22:33N 36°43' E 014°32'8210.0
2016-Apr-25 14:23N 37°33' E 015°53'1012.2
2016-Apr-25 13:33N 37°41' E 016°01'463 9.9
2016-Apr-23 14:33N 45°06' E 013°08'1312.3
2016-Apr-23 13:30N 45°18' E 013°02'  
Track history (hours):
 
Tides and Currents Weather Stations Pressure Air Temp Water Temp Dewpoint Dewpoint Depression Visibility Wind Speed Wind Dir Waves Ship Positions

Tasman

Last reported at 2016-Apr-30 14:32 UTC. Time now 2016-Apr-30 15:04 UTC.
Position N 38°43' W 009°50'.

Length 90 m; draft 4 m.

Type: Ship. MMSI: 23617000.

Date/timePositionNaut miles runAvg speedWind from/ knotsBaromVisibWave heightAir tempDewpointWater temp
2016-Apr-30 14:32N 38°43' W 009°50'7 6.7
2016-Apr-30 13:33N 38°37' W 009°49'6 6.1
2016-Apr-30 12:32N 38°31' W 009°47'8 6.0
2016-Apr-30 11:10N 38°23' W 009°45'14 7.1
2016-Apr-30 09:10N 38°09' W 009°41'5 8.3
2016-Apr-30 08:33N 38°04' W 009°39'9 9.0
2016-Apr-30 07:33N 37°55' W 009°37'23310.1
2016-Apr-29 08:33N 36°00' W 005°23'38212.1
2016-Apr-28 01:05N 37°11' E 002°24'610.7
2016-Apr-28 00:33N 37°12' E 002°31'1111.0
2016-Apr-27 23:33N 37°13' E 002°44'1211.6
2016-Apr-27 22:33N 37°15' E 002°59'1812.2
2016-Apr-27 21:04N 37°18' E 003°21'3112.1
2016-Apr-27 18:32N 37°22' E 003°60'45811.6
2016-Apr-26 03:08N 36°57' E 013°34'610.6
2016-Apr-26 02:33N 36°55' E 013°41'1110.6
2016-Apr-26 01:33N 36°52' E 013°54'1110.7
2016-Apr-26 00:33N 36°49' E 014°06'1110.9
2016-Apr-25 23:33N 36°45' E 014°19'1010.3
2016-Apr-25 22:33N 36°43' E 014°32'8210.0
2016-Apr-25 14:23N 37°33' E 015°53'1012.2
2016-Apr-25 13:33N 37°41' E 016°01'463 9.9
2016-Apr-23 14:33N 45°06' E 013°08'1312.3
2016-Apr-23 13:30N 45°18' E 013°02'  

Dump ship's entire track history